Time;durP1;ratioP1;P1;durP2;ratioP2;P2;SDS_P1;SDS_P2;PMS_P1;PMS_P2;Temp;Humidity;BMP_temperature;BMP_pressure;BME280_temperature;BME280_humidity;BME280_pressure;Samples;Min_cycle;Max_cycle;Signal;HPM_P1;HPM_P2
2021/08/10 00:00:21;;;;;;;4.50;3.42;;;19.50;74.00;;;;;;5038188;28;20209;-90
2021/08/10 00:02:47;;;;;;;3.67;2.65;;;19.50;74.00;;;;;;5040159;28;20197;-91
2021/08/10 00:05:12;;;;;;;3.28;2.97;;;19.40;74.80;;;;;;5038096;28;20564;-91
2021/08/10 00:07:38;;;;;;;4.53;2.97;;;19.50;74.60;;;;;;5028049;28;20182;-88
2021/08/10 00:10:05;;;;;;;3.40;3.10;;;19.50;74.00;;;;;;5042396;28;20213;-91
2021/08/10 00:12:31;;;;;;;3.38;3.00;;;19.50;73.90;;;;;;5040520;28;20189;-91
2021/08/10 00:14:57;;;;;;;4.43;2.90;;;19.60;73.60;;;;;;5042237;28;20663;-89
2021/08/10 00:17:22;;;;;;;4.05;3.35;;;19.60;73.50;;;;;;5043554;28;20217;-90
2021/08/10 00:19:48;;;;;;;4.95;3.05;;;19.70;73.30;;;;;;5058296;28;20192;-91
2021/08/10 00:22:14;;;;;;;3.35;2.90;;;19.70;73.20;;;;;;5041519;28;20213;-91
2021/08/10 00:24:39;;;;;;;3.28;2.78;;;19.60;73.00;;;;;;5045420;28;20244;-91
2021/08/10 00:27:05;;;;;;;3.20;2.70;;;19.50;73.50;;;;;;5043559;28;20213;-91
2021/08/10 00:29:31;;;;;;;3.25;3.03;;;19.50;73.90;;;;;;5026614;28;20200;-90
2021/08/10 00:31:57;;;;;;;3.22;2.92;;;19.50;74.20;;;;;;5044424;28;20244;-91
2021/08/10 00:34:23;;;;;;;3.25;2.95;;;19.50;73.70;;;;;;5043503;28;20250;-91
2021/08/10 00:36:48;;;;;;;3.80;3.10;;;19.50;73.70;;;;;;5043782;28;20212;-90
2021/08/10 00:39:15;;;;;;;3.50;3.20;;;19.30;73.60;;;;;;5043032;28;20735;-91
2021/08/10 00:41:41;;;;;;;4.88;3.30;;;19.30;74.00;;;;;;5043296;28;20206;-91
2021/08/10 00:44:08;;;;;;;3.65;3.35;;;19.20;74.40;;;;;;5039568;28;20261;-91
2021/08/10 00:46:34;;;;;;;6.07;3.72;;;19.30;74.10;;;;;;5038851;28;20639;-90
2021/08/10 00:48:59;;;;;;;4.50;2.95;;;19.20;73.70;;;;;;5044329;28;20193;-90
2021/08/10 00:51:26;;;;;;;4.13;3.42;;;18.90;75.20;;;;;;5040944;28;20213;-91
2021/08/10 00:53:51;;;;;;;3.28;3.03;;;18.90;75.30;;;;;;5044385;28;20231;-90
2021/08/10 00:56:17;;;;;;;3.90;3.25;;;19.00;75.40;;;;;;5043022;28;20232;-90
2021/08/10 00:58:43;;;;;;;3.58;3.10;;;19.00;75.10;;;;;;5041006;28;20219;-91
2021/08/10 01:01:09;;;;;;;4.38;3.05;;;19.00;74.90;;;;;;5071785;28;20293;-92
2021/08/10 01:03:34;;;;;;;3.17;2.97;;;19.10;74.70;;;;;;5040554;28;20228;-90
2021/08/10 01:06:06;;;;;;;3.08;2.78;;;19.10;74.50;;;;;;5042433;28;20734;-91
2021/08/10 01:08:51;;;;;;;3.13;2.72;;;19.20;74.10;;;;;;5040548;28;20193;-90
2021/08/10 01:11:27;;;;;;;5.60;3.10;;;19.10;74.40;;;;;;5038789;28;20217;-90
2021/08/10 01:13:59;;;;;;;2.95;2.75;;;19.10;74.20;;;;;;5029083;28;20184;-90
2021/08/10 01:16:47;;;;;;;5.65;3.03;;;19.00;74.20;;;;;;5041115;28;20259;-91
2021/08/10 01:19:31;;;;;;;3.45;2.90;;;19.00;74.50;;;;;;5043753;28;20181;-90
2021/08/10 01:22:00;;;;;;;3.10;2.83;;;19.10;74.40;;;;;;5041411;28;20208;-90
2021/08/10 01:24:34;;;;;;;3.65;2.88;;;19.00;74.30;;;;;;5039931;28;20194;-90
2021/08/10 01:27:14;;;;;;;3.38;3.13;;;19.00;73.90;;;;;;5043529;28;20192;-91
2021/08/10 01:30:00;;;;;;;4.85;3.35;;;19.00;74.10;;;;;;5030422;28;20189;-90
2021/08/10 01:32:27;;;;;;;4.20;3.13;;;19.00;74.10;;;;;;5038983;28;20667;-91
2021/08/10 01:34:54;;;;;;;5.00;3.05;;;19.00;74.00;;;;;;5040274;28;20203;-90
2021/08/10 01:37:26;;;;;;;3.83;3.38;;;18.80;74.00;;;;;;5026158;28;20229;-91
2021/08/10 01:39:55;;;;;;;3.38;3.05;;;18.80;76.10;;;;;;5042179;28;20203;-90
2021/08/10 01:42:23;;;;;;;3.20;2.90;;;18.80;75.10;;;;;;5039848;28;20698;-90
2021/08/10 01:44:49;;;;;;;3.35;2.85;;;18.70;75.10;;;;;;5025057;28;20197;-91
2021/08/10 01:47:16;;;;;;;3.97;2.78;;;18.80;75.10;;;;;;5040768;28;20213;-89
2021/08/10 01:49:43;;;;;;;3.35;3.08;;;18.70;74.70;;;;;;5039204;28;20242;-90
2021/08/10 01:52:14;;;;;;;3.42;3.13;;;18.60;75.10;;;;;;5041666;28;20223;-89
2021/08/10 01:54:42;;;;;;;5.72;2.92;;;18.70;75.40;;;;;;5022249;28;20189;-91
2021/08/10 01:57:10;;;;;;;3.35;3.08;;;18.80;75.30;;;;;;5039479;28;20217;-90
2021/08/10 01:59:38;;;;;;;4.20;2.97;;;18.70;75.00;;;;;;5039005;28;20254;-90
2021/08/10 02:02:06;;;;;;;6.90;3.05;;;18.70;74.80;;;;;;5042600;28;20590;-90
2021/08/10 02:04:32;;;;;;;5.10;3.42;;;18.60;74.60;;;;;;5024027;28;20246;-90
2021/08/10 02:06:59;;;;;;;6.18;3.10;;;18.50;75.20;;;;;;5040971;28;20276;-91
2021/08/10 02:09:25;;;;;;;3.45;3.10;;;18.50;75.60;;;;;;5040377;28;20272;-90
2021/08/10 02:11:53;;;;;;;3.25;2.85;;;18.60;75.70;;;;;;5042618;28;20262;-91
2021/08/10 02:14:23;;;;;;;3.40;3.10;;;18.60;75.20;;;;;;5036377;28;20264;-90
2021/08/10 02:16:50;;;;;;;4.45;3.45;;;18.60;75.10;;;;;;5040530;28;20192;-88
2021/08/10 02:19:16;;;;;;;4.07;3.22;;;18.60;75.00;;;;;;5057572;28;20252;-89
2021/08/10 02:21:51;;;;;;;3.92;3.33;;;18.60;74.80;;;;;;5055160;28;20215;-88
2021/08/10 02:24:30;;;;;;;3.42;3.17;;;18.60;74.50;;;;;;5037816;28;20208;-90
2021/08/10 02:27:05;;;;;;;4.15;2.60;;;18.60;74.80;;;;;;5039205;28;20228;-91
2021/08/10 02:29:34;;;;;;;3.22;2.67;;;18.50;74.90;;;;;;5040706;28;20218;-90
2021/08/10 02:32:02;;;;;;;3.40;3.08;;;18.40;75.10;;;;;;5041831;28;20231;-91
2021/08/10 02:34:28;;;;;;;3.33;3.03;;;18.40;74.80;;;;;;5036536;28;20771;-91
2021/08/10 02:36:59;;;;;;;4.45;3.30;;;18.40;75.40;;;;;;5031202;28;20221;-90
2021/08/10 02:39:26;;;;;;;4.65;3.28;;;18.40;75.40;;;;;;5040830;28;20204;-90
2021/08/10 02:41:54;;;;;;;4.03;3.55;;;18.30;76.00;;;;;;5042015;28;20235;-91
2021/08/10 02:44:21;;;;;;;3.60;3.30;;;18.40;75.40;;;;;;5027327;28;20189;-90
2021/08/10 02:46:47;;;;;;;3.17;2.95;;;18.40;75.40;;;;;;5024319;28;20199;-90
2021/08/10 02:49:12;;;;;;;4.72;3.47;;;18.30;75.00;;;;;;5041920;28;20226;-91
2021/08/10 02:51:39;;;;;;;6.28;2.92;;;18.30;75.20;;;;;;5041791;28;20213;-91
2021/08/10 02:54:05;;;;;;;3.42;2.80;;;18.10;75.60;;;;;;5038083;28;20188;-91
2021/08/10 02:56:42;;;;;;;3.30;2.90;;;18.00;76.20;;;;;;5040740;28;20223;-89
2021/08/10 02:59:19;;;;;;;3.78;2.90;;;18.10;76.90;;;;;;5042200;28;20184;-91
2021/08/10 03:01:50;;;;;;;3.08;2.58;;;18.10;76.40;;;;;;5039359;28;20216;-91
2021/08/10 03:04:18;;;;;;;3.50;3.20;;;18.10;76.10;;;;;;5020078;28;20200;-90
2021/08/10 03:06:44;;;;;;;5.72;2.90;;;18.00;75.60;;;;;;5024423;28;20201;-90
2021/08/10 03:09:11;;;;;;;3.45;2.60;;;18.00;76.10;;;;;;5042538;28;20192;-90
2021/08/10 03:11:41;;;;;;;3.00;2.80;;;18.10;76.00;;;;;;5036709;28;20231;-91
2021/08/10 03:14:11;;;;;;;4.35;2.88;;;18.10;75.90;;;;;;5036284;28;20199;-90
2021/08/10 03:16:39;;;;;;;3.00;2.72;;;18.10;75.70;;;;;;5039874;28;20561;-90
2021/08/10 03:19:05;;;;;;;3.05;2.75;;;18.10;75.90;;;;;;5037678;28;20189;-91
2021/08/10 03:21:33;;;;;;;3.63;3.03;;;18.10;75.60;;;;;;5038064;28;20238;-90
2021/08/10 03:24:00;;;;;;;4.40;2.80;;;18.00;75.40;;;;;;5037635;28;20357;-91
2021/08/10 03:26:28;;;;;;;2.88;2.67;;;17.90;75.20;;;;;;5039731;28;20180;-91
2021/08/10 03:28:55;;;;;;;4.10;2.85;;;17.90;76.70;;;;;;5040366;28;20189;-90
2021/08/10 03:31:22;;;;;;;4.65;3.10;;;17.90;76.40;;;;;;5039481;28;20220;-90
2021/08/10 03:33:49;;;;;;;3.78;3.15;;;18.00;76.40;;;;;;5072024;28;20198;-90
2021/08/10 03:36:15;;;;;;;3.80;3.10;;;18.10;76.10;;;;;;5040302;28;20228;-89
2021/08/10 03:38:41;;;;;;;4.35;3.10;;;18.00;75.50;;;;;;5040719;28;20210;-90
2021/08/10 03:41:07;;;;;;;3.40;3.10;;;17.90;75.70;;;;;;5042423;28;20211;-91
2021/08/10 03:43:35;;;;;;;3.53;2.85;;;17.90;76.20;;;;;;5042786;28;20203;-90
2021/08/10 03:46:01;;;;;;;3.90;3.28;;;18.00;76.00;;;;;;5045717;28;20238;-90
2021/08/10 03:48:34;;;;;;;2.80;2.60;;;18.00;75.80;;;;;;5042667;28;20204;-91
2021/08/10 03:51:00;;;;;;;4.65;2.72;;;18.00;76.20;;;;;;5044234;28;20215;-88
2021/08/10 03:53:27;;;;;;;3.45;2.88;;;18.00;76.00;;;;;;5044099;28;20196;-90
2021/08/10 03:55:54;;;;;;;3.30;2.90;;;18.10;75.60;;;;;;5042357;28;20213;-89
2021/08/10 03:58:23;;;;;;;3.78;2.70;;;18.10;75.50;;;;;;5043132;28;20204;-91
2021/08/10 04:00:52;;;;;;;6.88;2.90;;;18.20;75.20;;;;;;5038837;28;20303;-90
2021/08/10 04:03:18;;;;;;;6.80;3.30;;;18.20;75.20;;;;;;5043197;28;20214;-91
2021/08/10 04:05:46;;;;;;;3.33;3.03;;;18.00;75.10;;;;;;5041905;28;20200;-90
2021/08/10 04:08:14;;;;;;;3.17;2.88;;;17.90;75.50;;;;;;5042012;28;20191;-90
2021/08/10 04:10:42;;;;;;;3.75;2.63;;;17.90;76.00;;;;;;5041489;28;20230;-91
2021/08/10 04:13:09;;;;;;;5.07;2.90;;;17.90;76.20;;;;;;5064285;28;20190;-90
2021/08/10 04:15:47;;;;;;;4.95;2.88;;;17.90;76.10;;;;;;5045332;28;20591;-89
2021/08/10 04:18:22;;;;;;;3.20;2.88;;;18.00;76.40;;;;;;5042585;28;20564;-90
2021/08/10 04:20:49;;;;;;;7.05;2.88;;;18.00;75.60;;;;;;5043099;28;20211;-89
2021/08/10 04:23:15;;;;;;;3.10;2.90;;;18.00;75.60;;;;;;5056300;28;20201;-90
2021/08/10 04:25:41;;;;;;;4.75;2.90;;;17.90;76.10;;;;;;5041350;28;20193;-90
2021/08/10 04:28:07;;;;;;;4.18;2.92;;;17.90;76.10;;;;;;5043024;28;20188;-90
2021/08/10 04:30:33;;;;;;;3.88;2.97;;;17.90;76.20;;;;;;5040431;28;20242;-88
2021/08/10 04:32:58;;;;;;;4.93;2.65;;;17.90;76.20;;;;;;5041053;28;20273;-90
2021/08/10 04:35:25;;;;;;;3.08;2.70;;;18.00;76.00;;;;;;5040679;28;20217;-90
2021/08/10 04:37:51;;;;;;;4.78;2.92;;;18.00;75.70;;;;;;5039821;28;20184;-90
2021/08/10 04:40:17;;;;;;;3.78;2.92;;;18.00;75.70;;;;;;5033882;28;20266;-90
2021/08/10 04:42:43;;;;;;;3.08;2.78;;;17.90;76.00;;;;;;5012531;28;20212;-90
2021/08/10 04:45:09;;;;;;;5.25;3.20;;;17.80;76.20;;;;;;5035550;28;20197;-90
2021/08/10 04:47:35;;;;;;;3.20;2.90;;;17.80;76.50;;;;;;5037818;28;20215;-90
2021/08/10 04:50:01;;;;;;;3.60;2.90;;;17.80;76.80;;;;;;5034617;28;20256;-90
2021/08/10 04:52:27;;;;;;;4.80;3.13;;;17.80;76.60;;;;;;5039065;28;20694;-89
2021/08/10 04:54:52;;;;;;;3.60;3.08;;;17.80;76.80;;;;;;5042818;28;20195;-88
2021/08/10 04:57:18;;;;;;;5.20;3.05;;;17.90;76.60;;;;;;5039961;28;20221;-90
2021/08/10 04:59:44;;;;;;;5.22;3.25;;;17.90;76.40;;;;;;5028517;28;20196;-89
2021/08/10 05:02:09;;;;;;;12.70;3.72;;;18.00;76.20;;;;;;5043435;28;20235;-89
2021/08/10 05:04:35;;;;;;;10.10;3.70;;;17.90;77.00;;;;;;5044611;28;20192;-90
2021/08/10 05:07:04;;;;;;;6.93;3.60;;;17.90;77.60;;;;;;5043755;28;20200;-89
2021/08/10 05:09:32;;;;;;;5.13;3.00;;;17.90;77.30;;;;;;5041219;28;20227;-88
2021/08/10 05:11:58;;;;;;;5.13;2.92;;;17.90;77.40;;;;;;5043159;28;20245;-89
2021/08/10 05:14:31;;;;;;;17.55;4.63;;;18.00;77.20;;;;;;5040464;28;20837;-89
2021/08/10 05:16:57;;;;;;;8.70;3.85;;;18.00;77.20;;;;;;5034436;28;20220;-89
2021/08/10 05:19:23;;;;;;;6.85;3.85;;;18.00;77.80;;;;;;5057178;28;20259;-89
2021/08/10 05:21:48;;;;;;;6.45;3.45;;;18.00;78.00;;;;;;5039486;28;20208;-89
2021/08/10 05:24:14;;;;;;;3.47;3.13;;;18.00;78.40;;;;;;5034468;28;20194;-89
2021/08/10 05:26:40;;;;;;;3.80;3.40;;;18.00;78.30;;;;;;5036665;28;20679;-89
2021/08/10 05:29:05;;;;;;;4.32;3.30;;;18.00;78.20;;;;;;5037889;28;20248;-89
2021/08/10 05:31:31;;;;;;;3.92;3.05;;;18.10;78.00;;;;;;5039262;28;20216;-88
2021/08/10 05:33:57;;;;;;;5.05;3.55;;;18.20;77.80;;;;;;5036413;28;20260;-90
2021/08/10 05:36:22;;;;;;;3.65;2.92;;;18.20;77.70;;;;;;5036485;28;20641;-90
2021/08/10 05:38:50;;;;;;;3.47;3.15;;;18.40;77.40;;;;;;5028479;28;20182;-89
2021/08/10 05:41:40;;;;;;;4.18;3.17;;;18.40;77.50;;;;;;5040182;28;20216;-87
2021/08/10 05:44:05;;;;;;;3.55;3.25;;;18.40;77.50;;;;;;5037529;28;20205;-90
2021/08/10 05:46:31;;;;;;;3.42;3.13;;;18.40;78.00;;;;;;5035661;28;20734;-90
2021/08/10 05:48:58;;;;;;;3.85;3.45;;;18.50;78.00;;;;;;5062264;28;20207;-90
2021/08/10 05:51:24;;;;;;;4.47;2.90;;;18.60;78.50;;;;;;5037649;28;20311;-89
2021/08/10 05:53:50;;;;;;;3.85;3.35;;;18.60;78.60;;;;;;5037946;28;20196;-89
2021/08/10 05:56:16;;;;;;;5.50;3.80;;;18.70;77.70;;;;;;5044755;28;20221;-88
2021/08/10 05:58:41;;;;;;;5.47;3.60;;;18.70;78.20;;;;;;5035533;28;20232;-90
2021/08/10 06:01:07;;;;;;;6.40;3.67;;;18.60;79.40;;;;;;5038558;28;20259;-88
2021/08/10 06:03:34;;;;;;;4.53;4.03;;;18.40;79.60;;;;;;5039757;28;20205;-90
2021/08/10 06:06:00;;;;;;;9.10;4.07;;;18.20;81.20;;;;;;5038586;28;20205;-88
2021/08/10 06:08:27;;;;;;;6.82;4.15;;;18.30;80.70;;;;;;5034386;28;20261;-90
2021/08/10 06:10:53;;;;;;;5.70;4.20;;;18.20;81.80;;;;;;5045750;28;20269;-86
2021/08/10 06:13:19;;;;;;;6.15;4.20;;;18.10;82.90;;;;;;5058511;28;20425;-86
2021/08/10 06:15:45;;;;;;;7.13;4.75;;;17.90;83.10;;;;;;5051660;28;20264;-87
2021/08/10 06:18:10;;;;;;;6.53;4.55;;;17.80;82.80;;;;;;5035235;28;20270;-87
2021/08/10 06:20:36;;;;;;;8.45;4.30;;;17.80;83.60;;;;;;5039115;28;20204;-86
2021/08/10 06:23:04;;;;;;;5.87;4.17;;;17.80;82.50;;;;;;5038019;28;20194;-86
2021/08/10 06:25:29;;;;;;;5.85;3.85;;;17.80;83.60;;;;;;5035457;28;20180;-88
2021/08/10 06:27:55;;;;;;;5.27;4.00;;;17.70;83.60;;;;;;5032617;28;20217;-88
2021/08/10 06:30:21;;;;;;;5.77;4.10;;;17.70;83.40;;;;;;5080487;28;20307;-87
2021/08/10 06:32:46;;;;;;;5.23;4.23;;;17.70;83.60;;;;;;5045284;28;20352;-85
2021/08/10 06:35:12;;;;;;;7.80;4.73;;;17.80;84.30;;;;;;5037603;28;20198;-87
2021/08/10 06:37:38;;;;;;;8.17;4.07;;;18.00;82.60;;;;;;5049822;28;20197;-86
2021/08/10 06:40:04;;;;;;;6.15;4.53;;;17.90;83.70;;;;;;5034030;28;20208;-86
2021/08/10 06:42:30;;;;;;;9.75;4.10;;;17.90;83.50;;;;;;5037461;28;20187;-87
2021/08/10 06:44:56;;;;;;;6.20;4.30;;;18.00;83.70;;;;;;5039488;28;20179;-86
2021/08/10 06:47:21;;;;;;;5.72;4.30;;;17.90;83.20;;;;;;5037842;28;20242;-89
2021/08/10 06:49:47;;;;;;;6.22;4.18;;;18.10;82.10;;;;;;5040105;28;20797;-86
2021/08/10 06:52:13;;;;;;;4.82;4.32;;;18.20;82.00;;;;;;5046521;28;20263;-87
2021/08/10 06:54:39;;;;;;;7.25;4.35;;;18.20;82.20;;;;;;5040332;28;20198;-87
2021/08/10 06:57:06;;;;;;;6.20;4.38;;;18.20;82.90;;;;;;5032466;28;20216;-87
2021/08/10 06:59:33;;;;;;;4.47;4.07;;;18.40;81.10;;;;;;5040223;28;20215;-86
2021/08/10 07:01:58;;;;;;;5.68;3.83;;;18.50;81.20;;;;;;5042629;28;20200;-88
2021/08/10 07:04:24;;;;;;;5.10;4.05;;;18.60;81.00;;;;;;5039145;28;20200;-87
2021/08/10 07:06:50;;;;;;;5.20;3.70;;;18.70;79.60;;;;;;5039230;28;20210;-86
2021/08/10 07:09:16;;;;;;;5.25;3.95;;;18.70;78.80;;;;;;5039529;28;20199;-87
2021/08/10 07:11:43;;;;;;;7.55;3.88;;;18.70;79.30;;;;;;5042309;28;20235;-87
2021/08/10 07:14:12;;;;;;;7.15;4.30;;;18.80;78.40;;;;;;5042974;28;20207;-87
2021/08/10 07:16:47;;;;;;;4.72;3.80;;;18.80;79.10;;;;;;5043694;28;20221;-87
2021/08/10 07:19:13;;;;;;;7.75;4.55;;;18.90;78.30;;;;;;5036182;28;20260;-86
2021/08/10 07:21:40;;;;;;;4.28;3.80;;;19.10;77.60;;;;;;5045207;28;20216;-88
2021/08/10 07:24:06;;;;;;;4.95;3.65;;;19.20;80.00;;;;;;5043382;28;20196;-86
2021/08/10 07:26:32;;;;;;;4.25;3.33;;;19.30;78.20;;;;;;5042371;28;20282;-87
2021/08/10 07:28:58;;;;;;;5.57;3.50;;;19.30;77.50;;;;;;5046504;28;20256;-87
2021/08/10 07:31:24;;;;;;;5.15;3.53;;;19.50;76.60;;;;;;5043562;28;20247;-87
2021/08/10 07:33:50;;;;;;;3.90;3.50;;;19.30;78.00;;;;;;5042894;28;20189;-85
2021/08/10 07:36:17;;;;;;;7.22;3.67;;;19.60;75.80;;;;;;5042152;28;20966;-86
2021/08/10 07:38:43;;;;;;;4.75;3.40;;;19.80;76.10;;;;;;5039588;28;20189;-86
2021/08/10 07:41:09;;;;;;;7.22;3.13;;;20.00;74.90;;;;;;5039671;28;21267;-85
2021/08/10 07:43:35;;;;;;;6.15;3.42;;;20.00;74.20;;;;;;5035599;28;20194;-85
2021/08/10 07:46:00;;;;;;;4.57;3.28;;;20.00;73.00;;;;;;5040166;28;20203;-84
2021/08/10 07:48:26;;;;;;;5.07;3.40;;;20.00;73.10;;;;;;5036114;28;20259;-85
2021/08/10 07:50:52;;;;;;;3.75;3.42;;;20.00;73.80;;;;;;5037671;28;20276;-85
2021/08/10 07:53:20;;;;;;;7.30;3.65;;;20.10;74.20;;;;;;5041746;28;20196;-84
2021/08/10 07:55:46;;;;;;;5.75;3.72;;;20.10;73.20;;;;;;5039454;28;20225;-86
2021/08/10 07:58:12;;;;;;;5.13;3.70;;;20.20;73.10;;;;;;5037251;28;20197;-88
2021/08/10 08:00:38;;;;;;;5.60;3.60;;;20.30;74.80;;;;;;5031945;28;20216;-87
2021/08/10 08:03:03;;;;;;;12.45;3.97;;;20.30;75.50;;;;;;5038503;28;20197;-87
2021/08/10 08:05:30;;;;;;;5.38;3.92;;;20.60;74.00;;;;;;5036128;28;20584;-88
2021/08/10 08:07:56;;;;;;;5.78;3.92;;;20.80;72.90;;;;;;5039449;28;20197;-88
2021/08/10 08:10:22;;;;;;;5.82;4.00;;;20.90;70.60;;;;;;5040189;28;20224;-87
2021/08/10 08:12:47;;;;;;;5.35;4.30;;;20.80;71.40;;;;;;5038538;28;20197;-88
2021/08/10 08:15:13;;;;;;;6.88;4.10;;;20.80;72.70;;;;;;5039979;28;20203;-88
2021/08/10 08:17:39;;;;;;;4.38;3.88;;;20.90;71.00;;;;;;5040933;28;20576;-88
2021/08/10 08:20:05;;;;;;;5.97;3.70;;;21.10;72.30;;;;;;5038010;28;20250;-89
2021/08/10 08:22:31;;;;;;;6.15;4.30;;;21.10;72.70;;;;;;5038683;28;20198;-88
2021/08/10 08:24:57;;;;;;;5.93;3.60;;;21.20;70.10;;;;;;5038668;28;20196;-88
2021/08/10 08:27:22;;;;;;;5.10;3.63;;;21.40;70.50;;;;;;5036963;28;20206;-87
2021/08/10 08:29:48;;;;;;;5.57;3.67;;;21.60;69.00;;;;;;5038351;28;20191;-88
2021/08/10 08:32:14;;;;;;;3.92;3.42;;;21.70;68.50;;;;;;5055027;28;20603;-88
2021/08/10 08:34:40;;;;;;;4.35;3.80;;;21.40;68.10;;;;;;5040178;28;20267;-88
2021/08/10 08:37:05;;;;;;;5.30;3.22;;;21.30;68.00;;;;;;5036109;28;20228;-88
2021/08/10 08:39:31;;;;;;;4.75;3.15;;;21.50;66.30;;;;;;5037279;28;20247;-88
2021/08/10 08:42:01;;;;;;;7.45;3.85;;;21.70;66.30;;;;;;5038915;28;20266;-88
2021/08/10 08:44:34;;;;;;;5.85;3.10;;;21.50;65.70;;;;;;5038681;28;20669;-88
2021/08/10 08:47:04;;;;;;;4.00;3.22;;;21.40;66.70;;;;;;5036314;28;20199;-87
2021/08/10 08:49:32;;;;;;;3.55;3.15;;;21.60;64.90;;;;;;5039843;28;20193;-88
2021/08/10 08:52:03;;;;;;;4.43;3.35;;;21.40;64.50;;;;;;5037521;28;20320;-88
2021/08/10 08:54:32;;;;;;;4.93;3.30;;;21.60;64.80;;;;;;5038442;28;20192;-88
2021/08/10 08:56:58;;;;;;;4.72;3.53;;;21.60;65.60;;;;;;5039561;28;20212;-88
2021/08/10 08:59:24;;;;;;;3.95;3.03;;;21.60;67.50;;;;;;5039482;28;20791;-88
2021/08/10 09:01:52;;;;;;;3.50;3.20;;;21.70;65.70;;;;;;5037849;28;20207;-88
2021/08/10 09:04:18;;;;;;;3.42;2.92;;;21.60;64.80;;;;;;5038936;28;20693;-88
2021/08/10 09:06:45;;;;;;;3.70;3.20;;;21.80;64.50;;;;;;5037655;28;20195;-88
2021/08/10 09:09:29;;;;;;;4.63;3.25;;;21.80;62.30;;;;;;5036237;28;20601;-89
2021/08/10 09:11:58;;;;;;;3.15;2.85;;;22.20;62.10;;;;;;5033200;28;20227;-88
2021/08/10 09:14:25;;;;;;;3.55;3.22;;;22.50;61.60;;;;;;5037378;28;20228;-87
2021/08/10 09:17:01;;;;;;;4.88;3.17;;;22.80;59.30;;;;;;5037269;28;20212;-87
2021/08/10 09:19:48;;;;;;;3.38;3.08;;;23.00;57.10;;;;;;5033391;28;20747;-88
2021/08/10 09:22:26;;;;;;;3.70;2.97;;;23.20;57.10;;;;;;5035107;28;20192;-88
2021/08/10 09:25:00;;;;;;;4.32;3.05;;;23.20;57.10;;;;;;5038489;28;20197;-88
2021/08/10 09:27:37;;;;;;;3.33;3.03;;;23.40;59.00;;;;;;5038869;28;20192;-88
2021/08/10 09:30:05;;;;;;;4.53;3.20;;;23.70;58.00;;;;;;5037307;28;20250;-87
2021/08/10 09:32:32;;;;;;;4.20;3.25;;;23.80;58.40;;;;;;5036953;28;20924;-88
2021/08/10 09:35:17;;;;;;;3.28;2.97;;;23.90;58.50;;;;;;5038640;28;20189;-88
2021/08/10 09:38:05;;;;;;;5.85;3.10;;;24.10;56.10;;;;;;5038880;28;20209;-87
2021/08/10 09:40:41;;;;;;;5.90;2.95;;;23.90;55.50;;;;;;5037475;28;20217;-85
2021/08/10 09:43:25;;;;;;;4.78;3.30;;;24.10;57.70;;;;;;5039084;28;20203;-88
2021/08/10 09:46:14;;;;;;;4.50;2.97;;;24.10;57.50;;;;;;5037524;28;20192;-88
2021/08/10 09:48:46;;;;;;;3.08;2.88;;;24.40;54.80;;;;;;5036796;28;20264;-89
2021/08/10 09:51:14;;;;;;;3.70;2.88;;;24.40;54.70;;;;;;5038661;28;20228;-88
2021/08/10 09:53:41;;;;;;;4.53;3.22;;;24.70;56.40;;;;;;5038954;28;20232;-88
2021/08/10 09:56:07;;;;;;;3.22;2.92;;;24.90;55.00;;;;;;5039292;28;20213;-89
2021/08/10 09:58:59;;;;;;;4.30;2.92;;;25.00;53.10;;;;;;5038201;28;20177;-88
2021/08/10 10:01:36;;;;;;;3.35;2.97;;;25.00;53.90;;;;;;5022958;28;20236;-88
2021/08/10 10:04:26;;;;;;;4.78;3.33;;;25.00;52.10;;;;;;5038883;28;20193;-88
2021/08/10 10:06:58;;;;;;;3.75;2.97;;;24.90;53.40;;;;;;5040632;28;20192;-88
2021/08/10 10:09:26;;;;;;;4.55;3.05;;;24.90;54.40;;;;;;5040649;28;20192;-88
2021/08/10 10:11:54;;;;;;;4.30;3.60;;;25.00;52.30;;;;;;5038471;28;20240;-87
2021/08/10 10:14:22;;;;;;;3.83;3.20;;;24.80;54.10;;;;;;5019386;28;20192;-89
2021/08/10 10:16:51;;;;;;;4.28;3.22;;;25.00;53.40;;;;;;5036621;28;20220;-89
2021/08/10 10:19:19;;;;;;;3.80;3.42;;;25.10;52.80;;;;;;5034180;28;20181;-88
2021/08/10 10:21:50;;;;;;;5.03;3.60;;;25.30;53.90;;;;;;5035902;28;20243;-89
2021/08/10 10:24:19;;;;;;;4.28;3.15;;;25.30;52.80;;;;;;5036192;28;20715;-89
2021/08/10 10:27:00;;;;;;;2.92;2.72;;;25.40;52.70;;;;;;5037480;28;20185;-89
2021/08/10 10:29:27;;;;;;;4.63;3.28;;;25.40;52.40;;;;;;5036592;28;20643;-88
2021/08/10 10:31:53;;;;;;;3.50;3.10;;;25.50;52.80;;;;;;5032676;28;20262;-89
2021/08/10 10:34:19;;;;;;;3.83;3.13;;;25.60;52.90;;;;;;5035847;28;20189;-89
2021/08/10 10:36:47;;;;;;;8.70;3.55;;;25.70;51.80;;;;;;5036054;28;20231;-88
2021/08/10 10:39:21;;;;;;;5.70;3.15;;;25.90;51.10;;;;;;5036366;28;20184;-89
2021/08/10 10:41:47;;;;;;;3.50;2.95;;;26.10;50.80;;;;;;5034353;28;20236;-89
2021/08/10 10:44:13;;;;;;;4.63;3.15;;;26.20;50.90;;;;;;5036937;28;20207;-89
2021/08/10 10:46:40;;;;;;;5.53;3.95;;;25.70;51.90;;;;;;5034788;28;20255;-86
2021/08/10 10:49:08;;;;;;;4.88;3.22;;;25.50;54.70;;;;;;5033249;28;20254;-88
2021/08/10 10:51:40;;;;;;;3.72;3.40;;;25.30;54.20;;;;;;5036763;28;20204;-87
2021/08/10 10:54:26;;;;;;;4.57;3.78;;;25.60;52.90;;;;;;5036620;28;20193;-87
2021/08/10 10:56:57;;;;;;;5.20;3.60;;;25.60;54.50;;;;;;5036341;28;20223;-87
2021/08/10 10:59:35;;;;;;;6.25;3.20;;;25.30;51.90;;;;;;5036745;28;20614;-87
2021/08/10 11:02:13;;;;;;;5.68;3.08;;;25.10;52.40;;;;;;5037553;28;20211;-86
2021/08/10 11:05:05;;;;;;;4.97;3.00;;;25.30;52.60;;;;;;5038784;28;20184;-87
2021/08/10 11:07:43;;;;;;;6.18;3.30;;;25.50;52.30;;;;;;5033041;28;20195;-85
2021/08/10 11:10:11;;;;;;;4.95;3.55;;;25.50;51.40;;;;;;5034122;28;20311;-85
2021/08/10 11:12:43;;;;;;;5.80;3.47;;;25.60;50.10;;;;;;5034263;28;20248;-87
2021/08/10 11:15:20;;;;;;;7.10;3.47;;;25.60;50.70;;;;;;5036406;28;20185;-87
2021/08/10 11:18:08;;;;;;;3.85;3.28;;;25.70;51.60;;;;;;5034475;28;20209;-86
2021/08/10 11:20:43;;;;;;;5.30;3.00;;;25.60;51.10;;;;;;5038462;28;20208;-85
2021/08/10 11:23:21;;;;;;;4.85;3.50;;;25.50;50.30;;;;;;5035511;28;20190;-87
2021/08/10 11:25:57;;;;;;;4.28;3.08;;;25.70;52.40;;;;;;5035668;28;20180;-87
2021/08/10 11:28:51;;;;;;;4.95;3.20;;;25.50;50.90;;;;;;5029846;28;20205;-86
2021/08/10 11:31:39;;;;;;;4.15;3.30;;;25.60;51.90;;;;;;5037164;28;20216;-86
2021/08/10 11:34:30;;;;;;;6.90;3.20;;;25.60;52.30;;;;;;5035493;28;20188;-87
2021/08/10 11:37:18;;;;;;;4.93;3.33;;;25.50;50.70;;;;;;5035803;28;20197;-87
2021/08/10 11:40:11;;;;;;;6.88;3.15;;;25.50;53.20;;;;;;5033668;28;20267;-86
2021/08/10 11:42:38;;;;;;;5.55;3.35;;;24.90;53.70;;;;;;5063015;28;20189;-87
2021/08/10 11:45:06;;;;;;;4.22;3.13;;;25.00;54.00;;;;;;5034629;28;20219;-87
2021/08/10 11:47:31;;;;;;;4.82;3.60;;;25.00;54.40;;;;;;5035404;28;20189;-87
2021/08/10 11:49:57;;;;;;;5.22;3.25;;;25.00;55.10;;;;;;5034904;28;20559;-87
2021/08/10 11:52:38;;;;;;;5.18;3.40;;;25.10;54.10;;;;;;5036115;28;20283;-88
2021/08/10 11:55:04;;;;;;;4.63;3.63;;;25.10;53.40;;;;;;5031295;28;20257;-87
2021/08/10 11:57:30;;;;;;;5.82;4.03;;;25.10;51.70;;;;;;5037086;28;20287;-86
2021/08/10 12:00:12;;;;;;;10.13;4.50;;;25.30;52.90;;;;;;5033756;28;20192;-87
2021/08/10 12:02:45;;;;;;;3.80;3.28;;;25.30;52.80;;;;;;5035704;28;20220;-86
2021/08/10 12:05:11;;;;;;;6.65;4.13;;;25.30;51.40;;;;;;5037323;28;20239;-86
2021/08/10 12:07:50;;;;;;;3.50;3.10;;;25.50;52.10;;;;;;5039591;28;20200;-86
2021/08/10 12:10:20;;;;;;;6.63;3.60;;;25.10;52.40;;;;;;5031671;28;20647;-87
2021/08/10 12:12:47;;;;;;;5.75;3.20;;;25.20;53.60;;;;;;5040629;28;20288;-88
2021/08/10 12:15:36;;;;;;;3.50;3.03;;;25.10;54.60;;;;;;5058583;28;20212;-88
2021/08/10 12:18:02;;;;;;;4.13;3.05;;;25.10;54.50;;;;;;5033132;28;20192;-88
2021/08/10 12:20:27;;;;;;;4.82;3.80;;;25.20;51.60;;;;;;5040805;28;20201;-88
2021/08/10 12:23:12;;;;;;;5.57;3.83;;;25.10;53.20;;;;;;5040033;28;20169;-89
2021/08/10 12:25:39;;;;;;;6.70;3.60;;;25.10;53.10;;;;;;5042012;28;20276;-89
2021/08/10 12:28:10;;;;;;;3.95;3.25;;;24.70;53.10;;;;;;5038667;28;20188;-89
2021/08/10 12:30:38;;;;;;;5.55;3.20;;;24.90;51.90;;;;;;5042059;28;20205;-88
2021/08/10 12:33:17;;;;;;;3.58;3.28;;;25.10;53.20;;;;;;5041434;28;20219;-89
2021/08/10 12:36:09;;;;;;;4.22;3.63;;;25.10;53.20;;;;;;5039905;28;20185;-89
2021/08/10 12:38:36;;;;;;;6.65;3.60;;;25.00;52.70;;;;;;5038605;28;20209;-89
2021/08/10 12:41:02;;;;;;;4.30;3.28;;;25.10;53.90;;;;;;5036063;28;20270;-89
2021/08/10 12:43:29;;;;;;;5.35;3.30;;;25.20;52.80;;;;;;5039823;28;20820;-89
2021/08/10 12:45:55;;;;;;;5.38;3.22;;;25.50;51.90;;;;;;5034920;28;20541;-89
2021/08/10 12:48:31;;;;;;;6.43;3.38;;;25.70;51.70;;;;;;5036556;28;20192;-89
2021/08/10 12:51:05;;;;;;;5.40;3.80;;;25.80;51.80;;;;;;5035826;28;20227;-89
2021/08/10 12:53:32;;;;;;;6.38;3.50;;;25.90;50.80;;;;;;5033875;28;20243;-89
2021/08/10 12:55:59;;;;;;;4.28;3.55;;;25.60;50.30;;;;;;5039225;28;20224;-89